sensor_id;sensor_type;location;lat;lon;timestamp;pressure;altitude;pressure_sealevel;temperature;humidity
74675;BME280;63200;48.810;12.352;2022-12-07T00:01:26;97412.63;;;1.49;77.91
74675;BME280;63200;48.810;12.352;2022-12-07T00:03:53;97434.28;;;1.60;78.67
74675;BME280;63200;48.810;12.352;2022-12-07T00:06:20;97433.28;;;1.73;78.50
74675;BME280;63200;48.810;12.352;2022-12-07T00:08:46;97389.16;;;1.63;77.94
74675;BME280;63200;48.810;12.352;2022-12-07T00:11:18;97417.06;;;1.56;78.45
74675;BME280;63200;48.810;12.352;2022-12-07T00:13:44;97369.06;;;1.30;79.03
74675;BME280;63200;48.810;12.352;2022-12-07T00:16:16;97427.34;;;1.71;77.98
74675;BME280;63200;48.810;12.352;2022-12-07T00:18:42;97420.41;;;1.81;78.10
74675;BME280;63200;48.810;12.352;2022-12-07T00:21:22;97415.06;;;1.81;78.07
74675;BME280;63200;48.810;12.352;2022-12-07T00:23:50;97416.16;;;1.62;78.28
74675;BME280;63200;48.810;12.352;2022-12-07T00:26:24;97415.69;;;1.65;78.07
74675;BME280;63200;48.810;12.352;2022-12-07T00:28:51;97410.34;;;1.65;78.67
74675;BME280;63200;48.810;12.352;2022-12-07T00:31:19;97413.38;;;1.69;78.62
74675;BME280;63200;48.810;12.352;2022-12-07T00:33:44;97377.75;;;1.56;78.05
74675;BME280;63200;48.810;12.352;2022-12-07T00:36:12;97405.09;;;1.58;78.55
74675;BME280;63200;48.810;12.352;2022-12-07T00:38:38;97417.06;;;1.56;78.58
74675;BME280;63200;48.810;12.352;2022-12-07T00:41:06;97421.09;;;1.46;78.76
74675;BME280;63200;48.810;12.352;2022-12-07T00:43:32;97412.75;;;1.55;79.13
74675;BME280;63200;48.810;12.352;2022-12-07T00:45:58;97401.25;;;1.54;78.97
74675;BME280;63200;48.810;12.352;2022-12-07T00:48:24;97393.66;;;1.39;79.19
74675;BME280;63200;48.810;12.352;2022-12-07T00:50:50;97406.81;;;1.53;78.97
74675;BME280;63200;48.810;12.352;2022-12-07T00:53:16;97417.66;;;1.58;78.87
74675;BME280;63200;48.810;12.352;2022-12-07T00:55:42;97417.16;;;1.49;79.06
74675;BME280;63200;48.810;12.352;2022-12-07T00:58:08;97416.69;;;1.52;79.21
74675;BME280;63200;48.810;12.352;2022-12-07T01:00:35;97425.41;;;1.47;79.04
74675;BME280;63200;48.810;12.352;2022-12-07T01:03:02;97419.59;;;1.50;78.82
74675;BME280;63200;48.810;12.352;2022-12-07T01:05:27;97373.19;;;1.14;79.48
74675;BME280;63200;48.810;12.352;2022-12-07T01:07:53;97417.41;;;1.47;79.22
74675;BME280;63200;48.810;12.352;2022-12-07T01:10:18;97429.38;;;1.45;79.34
74675;BME280;63200;48.810;12.352;2022-12-07T01:12:43;97396.75;;;1.36;79.43
74675;BME280;63200;48.810;12.352;2022-12-07T01:15:09;97417.53;;;1.53;79.16
74675;BME280;63200;48.810;12.352;2022-12-07T01:17:35;97428.72;;;1.61;79.11
74675;BME280;63200;48.810;12.352;2022-12-07T01:20:01;97422.91;;;1.64;78.91
74675;BME280;63200;48.810;12.352;2022-12-07T01:22:26;97384.44;;;1.35;78.65
74675;BME280;63200;48.810;12.352;2022-12-07T01:24:52;97420.06;;;1.47;78.60
74675;BME280;63200;48.810;12.352;2022-12-07T01:27:17;97427.06;;;1.48;78.98
74675;BME280;63200;48.810;12.352;2022-12-07T01:29:42;97431.72;;;1.53;78.58
74675;BME280;63200;48.810;12.352;2022-12-07T01:32:08;97421.38;;;1.57;78.90
74675;BME280;63200;48.810;12.352;2022-12-07T01:34:33;97430.22;;;1.57;78.46
74675;BME280;63200;48.810;12.352;2022-12-07T01:36:58;97421.84;;;1.54;78.19
74675;BME280;63200;48.810;12.352;2022-12-07T01:39:24;97422.66;;;1.54;78.81
74675;BME280;63200;48.810;12.352;2022-12-07T01:41:49;97413.53;;;1.43;78.70
74675;BME280;63200;48.810;12.352;2022-12-07T01:47:22;97401.94;;;1.19;78.57
74675;BME280;63200;48.810;12.352;2022-12-07T01:49:48;97416.25;;;1.25;78.96
74675;BME280;63200;48.810;12.352;2022-12-07T01:52:23;97416.16;;;1.31;78.85
74675;BME280;63200;48.810;12.352;2022-12-07T01:54:54;97409.38;;;1.17;78.83
74675;BME280;63200;48.810;12.352;2022-12-07T01:57:20;97372.50;;;0.89;79.16
74675;BME280;63200;48.810;12.352;2022-12-07T01:59:48;97405.59;;;1.06;79.43
74675;BME280;63200;48.810;12.352;2022-12-07T02:02:22;97420.78;;;1.24;79.77
74675;BME280;63200;48.810;12.352;2022-12-07T02:04:48;97418.78;;;1.20;79.88
74675;BME280;63200;48.810;12.352;2022-12-07T02:07:15;97386.38;;;0.97;79.54
74675;BME280;63200;48.810;12.352;2022-12-07T02:09:40;97423.44;;;1.24;79.29
74675;BME280;63200;48.810;12.352;2022-12-07T02:12:06;97421.97;;;1.28;79.70
74675;BME280;63200;48.810;12.352;2022-12-07T02:14:31;97416.97;;;1.32;79.65
74675;BME280;63200;48.810;12.352;2022-12-07T02:17:14;97416.31;;;1.37;78.49
74675;BME280;63200;48.810;12.352;2022-12-07T02:20:02;97411.19;;;1.35;79.41
74675;BME280;63200;48.810;12.352;2022-12-07T02:26:02;97402.75;;;1.20;79.03
74675;BME280;63200;48.810;12.352;2022-12-07T02:31:31;97364.19;;;0.78;78.97
74675;BME280;63200;48.810;12.352;2022-12-07T02:34:34;97408.84;;;1.08;79.30
74675;BME280;63200;48.810;12.352;2022-12-07T02:40:00;97408.66;;;1.22;79.11
74675;BME280;63200;48.810;12.352;2022-12-07T02:42:38;97412.56;;;1.26;78.62
74675;BME280;63200;48.810;12.352;2022-12-07T02:45:06;97410.91;;;1.25;78.68
74675;BME280;63200;48.810;12.352;2022-12-07T02:47:33;97374.25;;;0.95;79.11
74675;BME280;63200;48.810;12.352;2022-12-07T02:50:03;97403.56;;;1.20;79.29
74675;BME280;63200;48.810;12.352;2022-12-07T02:52:29;97401.41;;;1.29;79.59
74675;BME280;63200;48.810;12.352;2022-12-07T02:54:54;97406.28;;;1.32;78.59
74675;BME280;63200;48.810;12.352;2022-12-07T03:03:00;97407.66;;;1.04;79.16
74675;BME280;63200;48.810;12.352;2022-12-07T03:08:20;97401.19;;;1.12;79.60
74675;BME280;63200;48.810;12.352;2022-12-07T03:10:57;97396.44;;;1.14;79.10
74675;BME280;63200;48.810;12.352;2022-12-07T03:16:26;97398.84;;;1.04;79.56
74675;BME280;63200;48.810;12.352;2022-12-07T03:18:56;97358.59;;;0.98;79.67
74675;BME280;63200;48.810;12.352;2022-12-07T03:21:39;97385.44;;;1.22;78.71
74675;BME280;63200;48.810;12.352;2022-12-07T03:24:11;97385.75;;;1.14;79.12
74675;BME280;63200;48.810;12.352;2022-12-07T03:26:43;97387.50;;;1.20;79.14
74675;BME280;63200;48.810;12.352;2022-12-07T03:29:19;97383.22;;;1.19;79.09
74675;BME280;63200;48.810;12.352;2022-12-07T03:31:53;97384.25;;;1.18;78.60
74675;BME280;63200;48.810;12.352;2022-12-07T03:34:34;97376.84;;;1.02;78.57
74675;BME280;63200;48.810;12.352;2022-12-07T03:37:09;97387.59;;;1.13;78.79
74675;BME280;63200;48.810;12.352;2022-12-07T03:39:45;97375.81;;;1.03;78.89
74675;BME280;63200;48.810;12.352;2022-12-07T03:42:15;97375.50;;;1.11;79.04
74675;BME280;63200;48.810;12.352;2022-12-07T03:44:41;97358.69;;;0.92;78.84
74675;BME280;63200;48.810;12.352;2022-12-07T03:47:20;97386.88;;;1.06;79.31
74675;BME280;63200;48.810;12.352;2022-12-07T03:49:56;97352.09;;;0.76;78.90
74675;BME280;63200;48.810;12.352;2022-12-07T03:52:28;97389.97;;;1.03;79.28
74675;BME280;63200;48.810;12.352;2022-12-07T03:57:31;97391.47;;;0.99;79.47
74675;BME280;63200;48.810;12.352;2022-12-07T03:59:58;97383.91;;;0.96;79.49
74675;BME280;63200;48.810;12.352;2022-12-07T04:02:24;97389.25;;;0.96;78.98
74675;BME280;63200;48.810;12.352;2022-12-07T04:04:51;97391.13;;;0.95;79.59
74675;BME280;63200;48.810;12.352;2022-12-07T04:07:17;97392.81;;;0.90;79.46
74675;BME280;63200;48.810;12.352;2022-12-07T04:09:42;97390.06;;;0.96;79.77
74675;BME280;63200;48.810;12.352;2022-12-07T04:12:08;97382.13;;;0.90;79.32
74675;BME280;63200;48.810;12.352;2022-12-07T04:14:33;97386.69;;;0.89;79.47
74675;BME280;63200;48.810;12.352;2022-12-07T04:16:59;97381.09;;;0.91;79.75
74675;BME280;63200;48.810;12.352;2022-12-07T04:19:26;97377.97;;;0.94;79.50
74675;BME280;63200;48.810;12.352;2022-12-07T04:21:52;97314.72;;;0.57;79.29
74675;BME280;63200;48.810;12.352;2022-12-07T04:24:17;97361.03;;;1.00;79.09
74675;BME280;63200;48.810;12.352;2022-12-07T04:26:45;97339.41;;;0.71;79.50
74675;BME280;63200;48.810;12.352;2022-12-07T04:29:11;97376.34;;;0.93;79.17
74675;BME280;63200;48.810;12.352;2022-12-07T04:31:36;97373.09;;;0.91;79.73
74675;BME280;63200;48.810;12.352;2022-12-07T04:34:03;97368.84;;;0.83;79.52
74675;BME280;63200;48.810;12.352;2022-12-07T04:36:28;97344.91;;;0.58;79.30
74675;BME280;63200;48.810;12.352;2022-12-07T04:38:54;97376.22;;;0.88;79.89
74675;BME280;63200;48.810;12.352;2022-12-07T04:41:20;97377.25;;;0.87;79.72
74675;BME280;63200;48.810;12.352;2022-12-07T04:43:55;97370.19;;;0.92;79.70
74675;BME280;63200;48.810;12.352;2022-12-07T04:46:21;97363.19;;;0.91;79.73
74675;BME280;63200;48.810;12.352;2022-12-07T04:48:47;97374.94;;;0.90;80.16
74675;BME280;63200;48.810;12.352;2022-12-07T04:51:13;97368.69;;;0.96;79.99
74675;BME280;63200;48.810;12.352;2022-12-07T04:53:38;97364.03;;;0.92;79.63
74675;BME280;63200;48.810;12.352;2022-12-07T04:56:04;97360.31;;;0.93;79.71
74675;BME280;63200;48.810;12.352;2022-12-07T04:58:29;97369.88;;;0.82;80.16
74675;BME280;63200;48.810;12.352;2022-12-07T05:00:54;97345.78;;;0.70;80.46
74675;BME280;63200;48.810;12.352;2022-12-07T05:03:20;97365.00;;;0.79;79.95
74675;BME280;63200;48.810;12.352;2022-12-07T05:05:45;97366.25;;;0.76;79.71
74675;BME280;63200;48.810;12.352;2022-12-07T05:08:11;97342.38;;;0.63;79.88
74675;BME280;63200;48.810;12.352;2022-12-07T05:10:36;97363.50;;;0.83;79.97
74675;BME280;63200;48.810;12.352;2022-12-07T05:13:01;97365.84;;;0.79;79.45
74675;BME280;63200;48.810;12.352;2022-12-07T05:15:27;97369.31;;;0.80;79.45
74675;BME280;63200;48.810;12.352;2022-12-07T05:17:52;97363.44;;;0.71;79.49
74675;BME280;63200;48.810;12.352;2022-12-07T05:20:17;97373.84;;;0.79;79.62
74675;BME280;63200;48.810;12.352;2022-12-07T05:22:43;97370.72;;;0.82;79.72
74675;BME280;63200;48.810;12.352;2022-12-07T05:25:08;97362.63;;;0.89;79.15
74675;BME280;63200;48.810;12.352;2022-12-07T05:27:34;97356.66;;;0.87;78.65
74675;BME280;63200;48.810;12.352;2022-12-07T05:29:59;97361.94;;;0.94;78.53
74675;BME280;63200;48.810;12.352;2022-12-07T05:32:24;97360.69;;;0.78;78.27
74675;BME280;63200;48.810;12.352;2022-12-07T05:34:50;97356.03;;;0.73;78.08
74675;BME280;63200;48.810;12.352;2022-12-07T05:37:15;97356.53;;;0.63;77.54
74675;BME280;63200;48.810;12.352;2022-12-07T05:39:40;97354.25;;;0.48;78.48
74675;BME280;63200;48.810;12.352;2022-12-07T05:42:09;97368.22;;;0.32;78.60
74675;BME280;63200;48.810;12.352;2022-12-07T05:44:42;97368.47;;;0.24;79.01
74675;BME280;63200;48.810;12.352;2022-12-07T05:47:09;97372.91;;;0.11;79.02
74675;BME280;63200;48.810;12.352;2022-12-07T05:49:35;97366.53;;;0.12;79.55
74675;BME280;63200;48.810;12.352;2022-12-07T05:52:00;97367.41;;;0.06;79.46
74675;BME280;63200;48.810;12.352;2022-12-07T05:54:26;97364.53;;;0.08;79.81
74675;BME280;63200;48.810;12.352;2022-12-07T05:56:52;97361.28;;;0.06;79.94
74675;BME280;63200;48.810;12.352;2022-12-07T05:59:17;97337.63;;;-0.16;79.32
74675;BME280;63200;48.810;12.352;2022-12-07T06:02:00;97355.78;;;-0.25;79.33
74675;BME280;63200;48.810;12.352;2022-12-07T06:04:28;97369.19;;;-0.31;80.02
74675;BME280;63200;48.810;12.352;2022-12-07T06:06:55;97364.97;;;-0.46;80.60
74675;BME280;63200;48.810;12.352;2022-12-07T06:09:21;97362.31;;;-0.46;80.87
74675;BME280;63200;48.810;12.352;2022-12-07T06:11:47;97362.94;;;-0.51;80.79
74675;BME280;63200;48.810;12.352;2022-12-07T06:14:31;97360.06;;;-0.49;80.42
74675;BME280;63200;48.810;12.352;2022-12-07T06:16:57;97361.13;;;-0.50;80.71
74675;BME280;63200;48.810;12.352;2022-12-07T06:19:23;97353.88;;;-0.43;80.71
74675;BME280;63200;48.810;12.352;2022-12-07T06:21:48;97345.63;;;-0.41;80.47
74675;BME280;63200;48.810;12.352;2022-12-07T06:24:15;97313.03;;;-0.69;80.24
74675;BME280;63200;48.810;12.352;2022-12-07T06:26:41;97301.59;;;-0.76;79.90
74675;BME280;63200;48.810;12.352;2022-12-07T06:29:08;97351.88;;;-0.47;79.95
74675;BME280;63200;48.810;12.352;2022-12-07T06:31:35;97349.19;;;-0.47;79.89
74675;BME280;63200;48.810;12.352;2022-12-07T06:34:02;97349.38;;;-0.49;79.74
74675;BME280;63200;48.810;12.352;2022-12-07T06:36:27;97358.84;;;-0.53;79.93
74675;BME280;63200;48.810;12.352;2022-12-07T06:38:53;97370.34;;;-0.53;79.27
74675;BME280;63200;48.810;12.352;2022-12-07T06:41:18;97357.16;;;-0.73;79.91
74675;BME280;63200;48.810;12.352;2022-12-07T06:43:44;97383.97;;;-0.61;79.49
74675;BME280;63200;48.810;12.352;2022-12-07T06:46:09;97380.91;;;-0.64;79.72
74675;BME280;63200;48.810;12.352;2022-12-07T06:48:34;97385.34;;;-0.58;79.92
74675;BME280;63200;48.810;12.352;2022-12-07T06:51:00;97391.25;;;-0.49;80.14
74675;BME280;63200;48.810;12.352;2022-12-07T06:53:25;97381.56;;;-0.44;79.93
74675;BME280;63200;48.810;12.352;2022-12-07T06:55:50;97367.88;;;-0.47;79.80
74675;BME280;63200;48.810;12.352;2022-12-07T06:58:16;97392.97;;;-0.30;79.16
74675;BME280;63200;48.810;12.352;2022-12-07T07:00:42;97396.84;;;-0.26;79.43
74675;BME280;63200;48.810;12.352;2022-12-07T07:03:08;97391.06;;;-0.23;79.35
74675;BME280;63200;48.810;12.352;2022-12-07T07:05:33;97389.38;;;-0.17;79.03
74675;BME280;63200;48.810;12.352;2022-12-07T07:07:58;97393.94;;;0.01;78.94
74675;BME280;63200;48.810;12.352;2022-12-07T07:10:24;97396.19;;;0.04;78.36
74675;BME280;63200;48.810;12.352;2022-12-07T07:12:49;97397.69;;;-0.07;78.47
74675;BME280;63200;48.810;12.352;2022-12-07T07:15:14;97395.91;;;-0.13;78.17
74675;BME280;63200;48.810;12.352;2022-12-07T07:17:40;97401.25;;;-0.13;78.24
74675;BME280;63200;48.810;12.352;2022-12-07T07:20:06;97400.91;;;0.02;78.31
74675;BME280;63200;48.810;12.352;2022-12-07T07:22:31;97402.66;;;0.15;78.49
74675;BME280;63200;48.810;12.352;2022-12-07T07:24:56;97416.53;;;0.49;77.94
74675;BME280;63200;48.810;12.352;2022-12-07T07:27:22;97420.00;;;0.68;77.83
74675;BME280;63200;48.810;12.352;2022-12-07T07:29:47;97420.25;;;0.66;76.51
74675;BME280;63200;48.810;12.352;2022-12-07T07:32:12;97420.31;;;0.60;76.52
74675;BME280;63200;48.810;12.352;2022-12-07T07:34:39;97421.16;;;0.35;76.65
74675;BME280;63200;48.810;12.352;2022-12-07T07:37:04;97419.00;;;0.25;76.67
74675;BME280;63200;48.810;12.352;2022-12-07T07:39:29;97414.59;;;0.12;77.69
74675;BME280;63200;48.810;12.352;2022-12-07T07:41:55;97413.63;;;0.07;77.68
74675;BME280;63200;48.810;12.352;2022-12-07T07:44:20;97419.53;;;0.09;78.06
74675;BME280;63200;48.810;12.352;2022-12-07T07:46:46;97411.75;;;0.07;78.23
74675;BME280;63200;48.810;12.352;2022-12-07T07:49:11;97415.19;;;0.14;78.62
74675;BME280;63200;48.810;12.352;2022-12-07T07:51:36;97396.78;;;0.06;78.27
74675;BME280;63200;48.810;12.352;2022-12-07T07:54:02;97414.81;;;0.11;77.83
74675;BME280;63200;48.810;12.352;2022-12-07T07:56:28;97421.41;;;0.08;78.30
74675;BME280;63200;48.810;12.352;2022-12-07T07:58:53;97379.84;;;-0.31;78.10
74675;BME280;63200;48.810;12.352;2022-12-07T08:01:18;97399.09;;;-0.29;78.87
74675;BME280;63200;48.810;12.352;2022-12-07T08:03:46;97389.59;;;-0.19;78.89
74675;BME280;63200;48.810;12.352;2022-12-07T08:06:11;97416.13;;;0.02;78.47
74675;BME280;63200;48.810;12.352;2022-12-07T08:08:37;97420.31;;;0.16;78.21
74675;BME280;63200;48.810;12.352;2022-12-07T08:11:06;97426.34;;;0.30;78.37
74675;BME280;63200;48.810;12.352;2022-12-07T08:13:32;97409.66;;;0.16;78.47
74675;BME280;63200;48.810;12.352;2022-12-07T08:15:58;97401.72;;;0.28;77.70
74675;BME280;63200;48.810;12.352;2022-12-07T08:18:23;97408.88;;;0.71;77.11
74675;BME280;63200;48.810;12.352;2022-12-07T08:20:49;97422.88;;;1.53;76.02
74675;BME280;63200;48.810;12.352;2022-12-07T08:23:14;97379.84;;;1.54;74.24
74675;BME280;63200;48.810;12.352;2022-12-07T08:25:40;97427.84;;;1.79;73.08
74675;BME280;63200;48.810;12.352;2022-12-07T08:28:05;97426.13;;;1.97;72.08
74675;BME280;63200;48.810;12.352;2022-12-07T08:30:31;97425.50;;;1.41;73.64
74675;BME280;63200;48.810;12.352;2022-12-07T08:32:57;97415.63;;;1.41;74.08
74675;BME280;63200;48.810;12.352;2022-12-07T08:35:22;97439.09;;;2.59;72.61
74675;BME280;63200;48.810;12.352;2022-12-07T08:37:48;97434.56;;;5.56;64.09
74675;BME280;63200;48.810;12.352;2022-12-07T08:40:14;97440.50;;;6.07;60.12
74675;BME280;63200;48.810;12.352;2022-12-07T08:42:43;97439.06;;;6.32;59.25
74675;BME280;63200;48.810;12.352;2022-12-07T08:45:11;97392.47;;;6.37;58.13
74675;BME280;63200;48.810;12.352;2022-12-07T08:47:40;97437.28;;;6.48;58.91
74675;BME280;63200;48.810;12.352;2022-12-07T08:50:07;97435.19;;;7.03;56.37
74675;BME280;63200;48.810;12.352;2022-12-07T08:52:35;97444.38;;;6.22;58.73
74675;BME280;63200;48.810;12.352;2022-12-07T08:55:03;97430.72;;;5.51;61.17
74675;BME280;63200;48.810;12.352;2022-12-07T08:57:29;97404.31;;;4.04;64.03
74675;BME280;63200;48.810;12.352;2022-12-07T08:59:55;97423.47;;;3.61;66.36
74675;BME280;63200;48.810;12.352;2022-12-07T09:02:20;97438.63;;;3.84;66.95
74675;BME280;63200;48.810;12.352;2022-12-07T09:04:46;97448.06;;;3.58;67.51
74675;BME280;63200;48.810;12.352;2022-12-07T09:07:11;97446.97;;;3.02;69.71
74675;BME280;63200;48.810;12.352;2022-12-07T09:09:36;97436.59;;;3.05;69.57
74675;BME280;63200;48.810;12.352;2022-12-07T09:12:02;97452.94;;;2.92;70.02
74675;BME280;63200;48.810;12.352;2022-12-07T09:14:27;97447.84;;;2.31;71.42
74675;BME280;63200;48.810;12.352;2022-12-07T09:16:53;97431.28;;;2.58;71.63
74675;BME280;63200;48.810;12.352;2022-12-07T09:19:18;97439.56;;;2.68;70.89
74675;BME280;63200;48.810;12.352;2022-12-07T09:21:43;97437.53;;;2.99;69.91
74675;BME280;63200;48.810;12.352;2022-12-07T09:24:09;97442.31;;;3.09;69.49
74675;BME280;63200;48.810;12.352;2022-12-07T09:26:34;97435.91;;;2.98;69.89
74675;BME280;63200;48.810;12.352;2022-12-07T09:29:02;97432.56;;;3.31;69.02
74675;BME280;63200;48.810;12.352;2022-12-07T09:31:27;97440.31;;;3.74;67.90
74675;BME280;63200;48.810;12.352;2022-12-07T09:33:57;97440.22;;;4.31;66.05
74675;BME280;63200;48.810;12.352;2022-12-07T09:36:23;97439.13;;;5.28;63.83
74675;BME280;63200;48.810;12.352;2022-12-07T09:38:48;97430.75;;;6.76;58.88
74675;BME280;63200;48.810;12.352;2022-12-07T09:41:14;97435.38;;;6.86;55.46
74675;BME280;63200;48.810;12.352;2022-12-07T09:43:41;97435.69;;;5.60;59.59
74675;BME280;63200;48.810;12.352;2022-12-07T09:46:11;97426.03;;;4.36;62.53
74675;BME280;63200;48.810;12.352;2022-12-07T09:48:37;97433.53;;;4.00;63.46
74675;BME280;63200;48.810;12.352;2022-12-07T09:53:39;97397.38;;;2.75;67.42
74675;BME280;63200;48.810;12.352;2022-12-07T09:56:05;97408.22;;;2.69;67.67
74675;BME280;63200;48.810;12.352;2022-12-07T09:58:32;97426.75;;;2.70;68.92
74675;BME280;63200;48.810;12.352;2022-12-07T10:01:20;97425.75;;;3.00;67.81
74675;BME280;63200;48.810;12.352;2022-12-07T10:03:54;97413.63;;;3.67;66.15
74675;BME280;63200;48.810;12.352;2022-12-07T10:06:20;97415.41;;;3.61;64.39
74675;BME280;63200;48.810;12.352;2022-12-07T10:08:46;97371.81;;;3.88;63.93
74675;BME280;63200;48.810;12.352;2022-12-07T10:11:12;97414.38;;;5.31;61.12
74675;BME280;63200;48.810;12.352;2022-12-07T10:14:10;97413.31;;;6.52;57.49
74675;BME280;63200;48.810;12.352;2022-12-07T10:16:39;97411.19;;;8.47;50.95
74675;BME280;63200;48.810;12.352;2022-12-07T10:19:23;97399.53;;;9.43;48.80
74675;BME280;63200;48.810;12.352;2022-12-07T10:22:02;97408.09;;;10.40;47.67
74675;BME280;63200;48.810;12.352;2022-12-07T10:24:28;97402.34;;;11.25;44.58
74675;BME280;63200;48.810;12.352;2022-12-07T10:26:53;97376.75;;;9.84;47.29
74675;BME280;63200;48.810;12.352;2022-12-07T10:31:53;97384.03;;;12.45;41.80
74675;BME280;63200;48.810;12.352;2022-12-07T10:34:25;97381.19;;;10.73;44.29
74675;BME280;63200;48.810;12.352;2022-12-07T10:36:52;97384.94;;;8.27;49.80
74675;BME280;63200;48.810;12.352;2022-12-07T10:39:19;97386.47;;;7.36;54.42
74675;BME280;63200;48.810;12.352;2022-12-07T10:42:19;97384.41;;;5.49;56.24
74675;BME280;63200;48.810;12.352;2022-12-07T10:44:45;97374.19;;;4.58;58.58
74675;BME280;63200;48.810;12.352;2022-12-07T10:47:19;97376.69;;;4.08;60.61
74675;BME280;63200;48.810;12.352;2022-12-07T10:58:04;97368.69;;;3.16;64.01
74675;BME280;63200;48.810;12.352;2022-12-07T11:00:41;97373.19;;;3.28;64.54
74675;BME280;63200;48.810;12.352;2022-12-07T11:11:59;97351.53;;;3.17;63.66
74675;BME280;63200;48.810;12.352;2022-12-07T11:14:38;97352.31;;;3.30;63.17
74675;BME280;63200;48.810;12.352;2022-12-07T11:17:20;97346.69;;;3.31;63.24
74675;BME280;63200;48.810;12.352;2022-12-07T11:20:01;97340.94;;;3.11;63.61
74675;BME280;63200;48.810;12.352;2022-12-07T11:22:34;97338.84;;;3.13;64.75
74675;BME280;63200;48.810;12.352;2022-12-07T11:25:02;97341.31;;;3.03;64.53
74675;BME280;63200;48.810;12.352;2022-12-07T11:28:02;97335.91;;;3.14;64.93
74675;BME280;63200;48.810;12.352;2022-12-07T11:36:29;97345.00;;;3.13;65.14
74675;BME280;63200;48.810;12.352;2022-12-07T11:39:00;97343.09;;;3.26;65.93
74675;BME280;63200;48.810;12.352;2022-12-07T11:41:31;97340.47;;;3.43;65.74
74675;BME280;63200;48.810;12.352;2022-12-07T11:47:28;97335.00;;;3.38;64.16
74675;BME280;63200;48.810;12.352;2022-12-07T11:50:37;97341.31;;;3.31;64.37
74675;BME280;63200;48.810;12.352;2022-12-07T11:58:13;97312.75;;;3.08;64.53
74675;BME280;63200;48.810;12.352;2022-12-07T12:00:42;97332.22;;;3.32;64.69
74675;BME280;63200;48.810;12.352;2022-12-07T12:03:12;97324.25;;;3.38;64.37
74675;BME280;63200;48.810;12.352;2022-12-07T12:05:41;97318.25;;;3.47;64.30
74675;BME280;63200;48.810;12.352;2022-12-07T12:08:27;97323.84;;;3.29;65.18
74675;BME280;63200;48.810;12.352;2022-12-07T12:23:18;97318.47;;;3.00;65.67
74675;BME280;63200;48.810;12.352;2022-12-07T12:25:45;97321.31;;;2.93;65.78
74675;BME280;63200;48.810;12.352;2022-12-07T12:33:31;97248.50;;;2.85;66.16
74675;BME280;63200;48.810;12.352;2022-12-07T12:50:16;97300.69;;;3.11;67.95
74675;BME280;63200;48.810;12.352;2022-12-07T12:57:36;97301.94;;;3.03;66.50
74675;BME280;63200;48.810;12.352;2022-12-07T13:00:19;97294.59;;;2.98;66.97
74675;BME280;63200;48.810;12.352;2022-12-07T13:02:49;97292.75;;;3.16;66.43
74675;BME280;63200;48.810;12.352;2022-12-07T13:05:29;97290.56;;;3.13;65.50
74675;BME280;63200;48.810;12.352;2022-12-07T13:08:15;97288.22;;;2.88;66.18
74675;BME280;63200;48.810;12.352;2022-12-07T13:10:45;97281.63;;;2.78;66.34
74675;BME280;63200;48.810;12.352;2022-12-07T13:23:29;97278.72;;;2.68;67.21
74675;BME280;63200;48.810;12.352;2022-12-07T13:28:43;97286.50;;;2.81;67.68
74675;BME280;63200;48.810;12.352;2022-12-07T13:33:55;97287.59;;;2.97;68.15
74675;BME280;63200;48.810;12.352;2022-12-07T13:36:27;97285.72;;;2.98;67.35
74675;BME280;63200;48.810;12.352;2022-12-07T13:38:56;97275.22;;;2.79;67.70
74675;BME280;63200;48.810;12.352;2022-12-07T13:41:24;97282.34;;;2.62;67.06
74675;BME280;63200;48.810;12.352;2022-12-07T13:43:51;97283.44;;;2.61;67.97
74675;BME280;63200;48.810;12.352;2022-12-07T13:46:20;97268.75;;;2.63;68.27
74675;BME280;63200;48.810;12.352;2022-12-07T13:48:49;97264.22;;;2.52;67.79
74675;BME280;63200;48.810;12.352;2022-12-07T13:51:24;97244.41;;;2.53;67.97
74675;BME280;63200;48.810;12.352;2022-12-07T13:54:01;97275.09;;;2.74;68.18
74675;BME280;63200;48.810;12.352;2022-12-07T13:56:35;97278.38;;;2.64;68.86
74675;BME280;63200;48.810;12.352;2022-12-07T13:59:01;97259.38;;;2.37;69.10
74675;BME280;63200;48.810;12.352;2022-12-07T14:01:28;97245.22;;;2.54;69.48
74675;BME280;63200;48.810;12.352;2022-12-07T14:03:55;97273.72;;;2.72;69.05
74675;BME280;63200;48.810;12.352;2022-12-07T14:06:24;97263.34;;;2.75;68.68
74675;BME280;63200;48.810;12.352;2022-12-07T14:09:07;97276.44;;;2.89;69.12
74675;BME280;63200;48.810;12.352;2022-12-07T14:11:33;97273.88;;;2.53;68.44
74675;BME280;63200;48.810;12.352;2022-12-07T14:14:01;97273.03;;;2.64;68.85
74675;BME280;63200;48.810;12.352;2022-12-07T14:16:32;97274.84;;;2.47;68.64
74675;BME280;63200;48.810;12.352;2022-12-07T14:18:59;97256.81;;;2.42;69.56
74675;BME280;63200;48.810;12.352;2022-12-07T14:21:28;97275.53;;;2.54;68.79
74675;BME280;63200;48.810;12.352;2022-12-07T14:24:15;97271.81;;;2.43;69.52
74675;BME280;63200;48.810;12.352;2022-12-07T14:26:41;97279.28;;;2.41;69.23
74675;BME280;63200;48.810;12.352;2022-12-07T14:29:32;97269.50;;;2.35;69.30
74675;BME280;63200;48.810;12.352;2022-12-07T14:32:13;97235.06;;;2.15;69.45
74675;BME280;63200;48.810;12.352;2022-12-07T14:34:53;97274.84;;;2.47;70.29
74675;BME280;63200;48.810;12.352;2022-12-07T14:37:18;97270.09;;;2.37;69.30
74675;BME280;63200;48.810;12.352;2022-12-07T14:39:43;97264.50;;;2.39;69.28
74675;BME280;63200;48.810;12.352;2022-12-07T14:42:09;97267.38;;;2.49;69.87
74675;BME280;63200;48.810;12.352;2022-12-07T14:44:35;97239.69;;;2.31;69.69
74675;BME280;63200;48.810;12.352;2022-12-07T14:47:00;97262.16;;;2.42;69.44
74675;BME280;63200;48.810;12.352;2022-12-07T14:49:25;97262.63;;;2.39;69.02
74675;BME280;63200;48.810;12.352;2022-12-07T14:51:51;97251.78;;;2.34;69.77
74675;BME280;63200;48.810;12.352;2022-12-07T14:54:20;97235.75;;;2.22;69.29
74675;BME280;63200;48.810;12.352;2022-12-07T14:56:46;97225.16;;;2.15;69.88
74675;BME280;63200;48.810;12.352;2022-12-07T14:59:15;97249.72;;;2.24;69.68
74675;BME280;63200;48.810;12.352;2022-12-07T15:01:41;97257.88;;;2.29;70.08
74675;BME280;63200;48.810;12.352;2022-12-07T15:04:06;97254.84;;;2.26;69.84